Time;durP1;ratioP1;P1;durP2;ratioP2;P2;SDS_P1;SDS_P2;PMS_P1;PMS_P2;Temp;Humidity;BMP_temperature;BMP_pressure;BME280_temperature;BME280_humidity;BME280_pressure;Samples;Min_cycle;Max_cycle;Signal;HPM_P1;HPM_P2
2021/12/01 00:00:53;;;;;;;0.70;0.57;;;8.90;99.90;;;;;;5033178;28;20230;-59
2021/12/01 00:03:21;;;;;;;1.15;0.40;;;8.90;99.90;;;;;;5032488;28;20241;-59
2021/12/01 00:05:50;;;;;;;0.50;0.40;;;8.90;99.90;;;;;;5032900;28;20197;-59
2021/12/01 00:08:19;;;;;;;1.30;0.40;;;9.00;99.90;;;;;;5040612;28;20698;-58
2021/12/01 00:10:48;;;;;;;1.27;1.17;;;8.90;99.90;;;;;;5051906;28;20446;-59
2021/12/01 00:13:19;;;;;;;1.05;0.80;;;8.90;99.90;;;;;;5042785;28;20480;-59
2021/12/01 00:15:52;;;;;;;0.70;0.43;;;8.90;99.90;;;;;;5032557;28;20619;-58
2021/12/01 00:18:20;;;;;;;0.82;0.60;;;8.90;99.90;;;;;;5032292;28;20232;-58
2021/12/01 00:20:49;;;;;;;1.45;0.57;;;8.90;99.90;;;;;;5032821;28;20248;-60
2021/12/01 00:23:17;;;;;;;1.10;0.63;;;8.90;99.90;;;;;;5032072;28;20721;-59
2021/12/01 00:25:46;;;;;;;0.70;0.70;;;8.90;99.90;;;;;;5032629;28;20435;-60
2021/12/01 00:28:14;;;;;;;0.57;0.47;;;8.90;99.90;;;;;;5031448;28;20221;-59
2021/12/01 00:30:43;;;;;;;1.90;0.63;;;8.90;99.90;;;;;;5031473;28;20559;-59
2021/12/01 00:33:17;;;;;;;1.35;0.77;;;8.90;99.90;;;;;;5032029;28;20992;-59
2021/12/01 00:35:46;;;;;;;2.08;0.90;;;8.90;99.90;;;;;;5032328;28;20195;-59
2021/12/01 00:38:14;;;;;;;0.73;0.70;;;8.90;99.90;;;;;;5031775;28;20580;-58
2021/12/01 00:40:42;;;;;;;3.03;0.65;;;8.80;99.90;;;;;;5031869;28;20220;-59
2021/12/01 00:43:16;;;;;;;1.40;0.60;;;8.80;99.90;;;;;;5031948;28;20594;-60
2021/12/01 00:45:51;;;;;;;1.00;0.90;;;8.80;99.90;;;;;;5032203;28;20643;-58
2021/12/01 00:48:21;;;;;;;1.25;0.60;;;8.80;99.90;;;;;;5031742;28;20311;-58
2021/12/01 00:50:51;;;;;;;0.93;0.68;;;8.90;99.90;;;;;;5032293;28;20239;-59
2021/12/01 00:53:19;;;;;;;1.97;0.60;;;8.90;99.90;;;;;;5036583;28;20264;-60
2021/12/01 00:55:47;;;;;;;1.08;0.60;;;8.90;99.90;;;;;;5052073;28;20431;-59
2021/12/01 00:58:16;;;;;;;1.13;0.80;;;8.90;99.90;;;;;;5042597;28;20217;-58
2021/12/01 01:00:48;;;;;;;1.20;0.50;;;8.80;99.90;;;;;;5030675;28;20217;-57
2021/12/01 01:03:18;;;;;;;0.70;0.47;;;8.80;99.90;;;;;;5030845;28;20743;-60
2021/12/01 01:05:49;;;;;;;2.47;0.60;;;8.80;99.90;;;;;;5030884;28;20545;-60
2021/12/01 01:08:18;;;;;;;0.60;0.40;;;8.80;99.90;;;;;;5030821;28;20289;-58
2021/12/01 01:11:08;;;;;;;0.70;0.57;;;8.80;99.90;;;;;;5031269;28;20240;-58
2021/12/01 01:16:23;;;;;;;1.40;1.10;;;8.80;99.90;;;;;;5031264;28;20191;-59
2021/12/01 01:18:55;;;;;;;1.00;0.60;;;8.80;99.90;;;;;;5040184;28;20254;-58
2021/12/01 01:21:27;;;;;;;1.10;0.82;;;8.80;99.90;;;;;;5048478;28;20250;-60
2021/12/01 01:23:56;;;;;;;2.05;1.10;;;8.80;99.90;;;;;;5030465;28;20699;-60
2021/12/01 01:26:25;;;;;;;1.10;0.82;;;8.80;99.90;;;;;;5030785;28;20194;-58
2021/12/01 01:28:53;;;;;;;0.85;0.60;;;8.70;99.90;;;;;;5030177;28;20262;-58
2021/12/01 01:31:22;;;;;;;1.95;1.17;;;8.80;99.90;;;;;;5030978;28;20231;-60
2021/12/01 01:33:51;;;;;;;1.40;1.30;;;8.80;99.90;;;;;;5030342;28;20309;-60
2021/12/01 01:36:19;;;;;;;1.45;1.35;;;8.80;99.90;;;;;;5032422;28;20683;-59
2021/12/01 01:38:49;;;;;;;1.55;1.00;;;8.70;99.90;;;;;;5050229;28;20306;-58
2021/12/01 01:41:18;;;;;;;2.05;1.63;;;8.70;99.90;;;;;;5049188;28;20623;-60
2021/12/01 01:43:49;;;;;;;1.70;1.60;;;8.70;99.90;;;;;;5036805;28;20216;-60
2021/12/01 01:46:18;;;;;;;1.25;1.15;;;8.70;99.90;;;;;;5030767;28;20196;-61
2021/12/01 01:48:50;;;;;;;1.40;1.25;;;8.70;99.90;;;;;;5028707;28;20630;-57
2021/12/01 01:51:20;;;;;;;2.17;1.98;;;8.70;99.90;;;;;;5050680;28;20691;-58
2021/12/01 01:53:53;;;;;;;3.35;1.80;;;8.70;99.90;;;;;;5061711;28;20216;-60
2021/12/01 01:56:21;;;;;;;2.40;2.20;;;8.70;99.90;;;;;;5054017;28;20195;-60
2021/12/01 01:58:49;;;;;;;1.65;1.55;;;8.70;99.90;;;;;;5036621;28;20576;-59
2021/12/01 02:01:37;;;;;;;2.20;1.55;;;8.70;99.90;;;;;;5033969;28;20771;-60
2021/12/01 02:04:20;;;;;;;2.90;1.92;;;8.60;99.90;;;;;;5088644;28;21057;-60
2021/12/01 02:06:49;;;;;;;2.40;2.20;;;8.60;99.90;;;;;;5085762;28;20914;-59
2021/12/01 02:09:22;;;;;;;2.20;2.00;;;8.60;99.90;;;;;;5048937;28;20212;-58
2021/12/01 02:11:53;;;;;;;2.30;2.10;;;8.60;99.90;;;;;;5048306;28;20200;-60
2021/12/01 02:14:22;;;;;;;3.22;1.92;;;8.60;99.90;;;;;;5028852;28;20584;-59
2021/12/01 02:16:51;;;;;;;2.65;2.20;;;8.60;99.90;;;;;;5028615;28;20616;-58
2021/12/01 02:19:21;;;;;;;2.20;2.00;;;8.60;99.90;;;;;;5042073;28;20234;-59
2021/12/01 02:21:51;;;;;;;2.20;2.00;;;8.50;99.90;;;;;;5039244;28;20202;-59
2021/12/01 02:24:22;;;;;;;2.80;1.70;;;8.50;99.90;;;;;;5028577;28;20221;-59
2021/12/01 02:26:51;;;;;;;2.25;2.10;;;8.50;99.90;;;;;;5028768;28;20586;-59
2021/12/01 02:29:22;;;;;;;2.45;2.25;;;8.50;99.90;;;;;;5028492;28;20262;-58
2021/12/01 02:31:51;;;;;;;2.45;2.25;;;8.50;99.90;;;;;;5028212;28;20247;-59
2021/12/01 02:34:21;;;;;;;2.38;2.17;;;8.50;99.90;;;;;;5028320;28;20517;-61
2021/12/01 02:36:53;;;;;;;2.45;2.10;;;8.50;99.90;;;;;;5028027;28;20249;-59
2021/12/01 02:39:21;;;;;;;3.33;2.20;;;8.50;99.90;;;;;;5028611;28;20281;-58
2021/12/01 02:41:53;;;;;;;2.55;2.20;;;8.50;99.90;;;;;;5027909;28;20197;-60
2021/12/01 02:44:22;;;;;;;2.55;2.33;;;8.50;99.90;;;;;;5027904;28;20221;-59
2021/12/01 02:46:50;;;;;;;4.28;2.65;;;8.50;99.90;;;;;;5027697;28;20236;-60
2021/12/01 02:49:21;;;;;;;5.43;3.08;;;8.50;99.90;;;;;;5028405;28;20285;-58
2021/12/01 02:51:53;;;;;;;3.25;2.45;;;8.50;99.90;;;;;;5027801;28;20183;-59
2021/12/01 02:54:22;;;;;;;2.55;2.10;;;8.50;99.90;;;;;;5028187;28;20263;-60
2021/12/01 02:56:52;;;;;;;3.30;2.55;;;8.50;99.90;;;;;;5046594;28;20250;-60
2021/12/01 02:59:21;;;;;;;3.20;2.83;;;8.50;99.90;;;;;;5029816;28;20218;-57
2021/12/01 03:01:50;;;;;;;3.05;2.75;;;8.50;99.90;;;;;;5027833;28;20440;-60
2021/12/01 03:04:20;;;;;;;2.50;2.30;;;8.50;99.90;;;;;;5027620;28;20594;-60
2021/12/01 03:06:52;;;;;;;3.20;2.75;;;8.40;99.90;;;;;;5027679;28;20187;-61
2021/12/01 03:09:20;;;;;;;4.30;2.60;;;8.40;99.90;;;;;;5044959;28;20616;-58
2021/12/01 03:11:49;;;;;;;3.75;2.75;;;8.50;99.90;;;;;;5047939;28;20192;-60
2021/12/01 03:14:19;;;;;;;3.40;2.63;;;8.50;99.90;;;;;;5064075;28;20246;-60
2021/12/01 03:16:49;;;;;;;4.43;2.65;;;8.40;99.90;;;;;;5054515;28;20185;-60
2021/12/01 03:19:17;;;;;;;3.00;2.70;;;8.40;99.90;;;;;;5066990;28;20220;-58
2021/12/01 03:21:46;;;;;;;2.63;2.42;;;8.40;99.90;;;;;;5074277;28;20245;-60
2021/12/01 03:24:34;;;;;;;3.30;2.78;;;8.50;99.90;;;;;;5053841;28;20249;-60
2021/12/01 03:27:14;;;;;;;3.10;2.55;;;8.40;99.90;;;;;;5053737;28;20212;-58
2021/12/01 03:29:42;;;;;;;3.42;3.13;;;8.40;99.90;;;;;;5073967;28;20290;-59
2021/12/01 03:32:10;;;;;;;3.92;3.50;;;8.40;99.90;;;;;;5073616;28;20273;-60
2021/12/01 03:34:39;;;;;;;3.33;2.97;;;8.40;99.90;;;;;;5073884;28;20194;-60
2021/12/01 03:37:07;;;;;;;3.67;2.88;;;8.40;99.90;;;;;;5054084;28;20252;-59
2021/12/01 03:39:37;;;;;;;5.25;2.95;;;8.40;99.90;;;;;;5053980;28;20237;-58
2021/12/01 03:42:06;;;;;;;3.78;2.60;;;8.40;99.90;;;;;;5053516;28;20187;-59
2021/12/01 03:44:34;;;;;;;4.65;3.45;;;8.40;99.90;;;;;;5053105;28;20202;-59
2021/12/01 03:47:02;;;;;;;4.82;2.80;;;8.40;99.90;;;;;;5053162;28;20261;-59
2021/12/01 03:49:30;;;;;;;4.43;3.83;;;8.40;99.90;;;;;;5054222;28;20799;-58
2021/12/01 03:51:58;;;;;;;8.95;4.88;;;8.40;99.90;;;;;;5053170;28;20246;-62
2021/12/01 03:54:28;;;;;;;5.10;3.60;;;8.40;99.90;;;;;;5053016;28;20660;-60
2021/12/01 03:57:17;;;;;;;7.68;3.40;;;8.40;99.90;;;;;;5052964;28;20272;-60
2021/12/01 04:00:07;;;;;;;3.35;3.05;;;8.30;99.90;;;;;;5053920;28;20224;-58
2021/12/01 04:02:39;;;;;;;5.15;3.88;;;8.30;99.90;;;;;;5051602;28;20224;-60
2021/12/01 04:05:09;;;;;;;3.95;3.58;;;8.30;99.90;;;;;;5075563;28;20214;-60
2021/12/01 04:07:37;;;;;;;3.92;3.13;;;8.30;99.90;;;;;;5060684;28;20259;-58
2021/12/01 04:10:08;;;;;;;6.07;3.28;;;8.20;99.90;;;;;;5053901;28;20575;-58
2021/12/01 04:12:38;;;;;;;3.40;3.00;;;8.30;99.90;;;;;;5052773;28;20277;-59
2021/12/01 04:15:07;;;;;;;5.43;3.85;;;8.30;99.90;;;;;;5053337;28;20194;-60
2021/12/01 04:17:36;;;;;;;3.22;2.80;;;8.20;99.90;;;;;;5052390;28;20245;-59
2021/12/01 04:20:05;;;;;;;3.80;3.38;;;8.20;99.90;;;;;;5053523;28;20245;-58
2021/12/01 04:22:33;;;;;;;2.55;2.35;;;8.10;99.90;;;;;;5052658;28;20241;-59
2021/12/01 04:25:01;;;;;;;2.80;2.47;;;8.20;99.90;;;;;;5052860;28;20216;-62
2021/12/01 04:27:29;;;;;;;2.78;2.20;;;8.10;99.90;;;;;;5051417;28;20280;-60
2021/12/01 04:29:58;;;;;;;5.50;3.17;;;8.10;99.90;;;;;;5052816;28;20239;-58
2021/12/01 04:32:26;;;;;;;2.50;2.30;;;8.10;99.90;;;;;;5052688;28;20224;-59
2021/12/01 04:34:56;;;;;;;2.78;2.38;;;8.10;99.90;;;;;;5052647;28;20181;-60
2021/12/01 04:37:25;;;;;;;2.92;2.35;;;8.10;99.90;;;;;;5052614;28;20224;-61
2021/12/01 04:39:54;;;;;;;3.25;2.85;;;8.10;99.90;;;;;;5052809;28;20211;-58
2021/12/01 04:42:22;;;;;;;2.30;1.85;;;8.10;99.90;;;;;;5052348;28;20268;-58
2021/12/01 04:44:51;;;;;;;4.20;2.13;;;8.10;99.90;;;;;;5052130;28;20216;-59
2021/12/01 04:47:27;;;;;;;1.95;1.80;;;8.20;99.90;;;;;;5052431;28;20212;-60
2021/12/01 04:50:16;;;;;;;1.60;1.40;;;8.20;99.90;;;;;;5052869;28;20257;-59
2021/12/01 04:52:44;;;;;;;3.35;1.90;;;8.20;99.90;;;;;;5052099;28;20216;-60
2021/12/01 04:55:13;;;;;;;1.60;1.50;;;8.20;99.90;;;;;;5056232;28;20621;-59
2021/12/01 04:57:42;;;;;;;2.53;1.70;;;8.20;99.90;;;;;;5067639;28;20217;-60
2021/12/01 05:00:15;;;;;;;1.50;1.10;;;8.20;99.90;;;;;;5052274;28;20471;-58
2021/12/01 05:02:44;;;;;;;2.03;1.20;;;8.30;99.90;;;;;;5050588;28;20224;-60
2021/12/01 05:05:13;;;;;;;1.23;1.13;;;8.30;99.90;;;;;;5051674;28;20221;-59
2021/12/01 05:07:41;;;;;;;1.80;1.38;;;8.30;99.90;;;;;;5051949;28;20568;-59
2021/12/01 05:10:09;;;;;;;1.55;1.25;;;8.30;99.90;;;;;;5052446;28;20190;-57
2021/12/01 05:12:38;;;;;;;1.20;1.10;;;8.30;99.90;;;;;;5051643;28;20211;-59
2021/12/01 05:15:07;;;;;;;1.63;1.02;;;8.30;99.90;;;;;;5052072;28;20546;-60
2021/12/01 05:17:36;;;;;;;1.13;1.02;;;8.30;99.90;;;;;;5050198;28;20225;-60
2021/12/01 05:20:07;;;;;;;1.73;1.30;;;8.40;99.90;;;;;;5071803;28;20216;-58
2021/12/01 05:22:36;;;;;;;2.10;1.15;;;8.40;99.90;;;;;;5066435;28;20255;-59
2021/12/01 05:25:05;;;;;;;1.83;1.30;;;8.40;99.90;;;;;;5051814;28;20219;-59
2021/12/01 05:27:33;;;;;;;1.33;1.23;;;8.40;99.90;;;;;;5051538;28;20628;-59
2021/12/01 05:30:01;;;;;;;1.25;1.15;;;8.40;99.90;;;;;;5051912;28;20259;-58
2021/12/01 05:32:30;;;;;;;1.75;1.30;;;8.30;99.90;;;;;;5051380;28;20225;-59
2021/12/01 05:34:58;;;;;;;1.90;1.80;;;8.30;99.90;;;;;;5051713;28;20265;-59
2021/12/01 05:37:28;;;;;;;1.30;1.20;;;8.30;99.90;;;;;;5050747;28;20245;-61
2021/12/01 05:39:56;;;;;;;1.50;1.40;;;8.30;99.90;;;;;;5052004;28;20256;-58
2021/12/01 05:42:24;;;;;;;3.35;1.30;;;8.30;99.90;;;;;;5051342;28;20693;-59
2021/12/01 05:44:52;;;;;;;1.77;1.45;;;8.20;99.90;;;;;;5051398;28;20258;-60
2021/12/01 05:47:20;;;;;;;1.73;1.50;;;8.30;99.90;;;;;;5051406;28;20245;-60
2021/12/01 05:49:48;;;;;;;4.93;1.50;;;8.20;99.90;;;;;;5051566;28;20186;-59
2021/12/01 05:52:17;;;;;;;2.20;1.45;;;8.20;99.90;;;;;;5051311;28;20593;-59
2021/12/01 05:54:50;;;;;;;1.25;1.13;;;8.20;99.90;;;;;;5051307;28;20186;-61
2021/12/01 05:57:19;;;;;;;1.70;1.20;;;8.20;99.90;;;;;;5050938;28;20235;-59
2021/12/01 05:59:47;;;;;;;1.50;1.40;;;8.30;99.90;;;;;;5051645;28;20272;-58
2021/12/01 06:02:15;;;;;;;1.35;1.25;;;8.20;99.90;;;;;;5050977;28;20217;-58
2021/12/01 06:04:43;;;;;;;1.42;1.10;;;8.20;99.90;;;;;;5051102;28;20306;-59
2021/12/01 06:07:12;;;;;;;1.38;1.20;;;8.30;99.90;;;;;;5049269;28;20226;-60
2021/12/01 06:09:43;;;;;;;2.92;1.33;;;8.30;99.90;;;;;;5051402;28;20683;-58
2021/12/01 06:12:13;;;;;;;1.88;1.67;;;8.30;99.90;;;;;;5051112;28;20207;-59
2021/12/01 06:14:42;;;;;;;1.30;1.20;;;8.30;99.90;;;;;;5051481;28;20195;-60
2021/12/01 06:17:11;;;;;;;1.40;0.95;;;8.30;99.90;;;;;;5050707;28;20229;-59
2021/12/01 06:19:39;;;;;;;1.30;1.00;;;8.40;99.90;;;;;;5051310;28;20192;-58
2021/12/01 06:22:08;;;;;;;1.30;1.20;;;8.30;99.90;;;;;;5050308;28;20300;-58
2021/12/01 06:24:37;;;;;;;1.20;1.10;;;8.30;99.90;;;;;;5051169;28;20204;-60
2021/12/01 06:27:05;;;;;;;0.77;0.75;;;8.40;99.90;;;;;;5050541;28;20219;-59
2021/12/01 06:29:36;;;;;;;1.95;1.15;;;8.30;99.90;;;;;;5050933;28;20249;-59
2021/12/01 06:32:05;;;;;;;0.80;0.60;;;8.40;99.90;;;;;;5050524;28;20573;-58
2021/12/01 06:34:33;;;;;;;0.90;0.65;;;8.40;99.90;;;;;;5051114;28;20193;-59
2021/12/01 06:37:01;;;;;;;0.98;0.90;;;8.50;99.90;;;;;;5050120;28;20228;-60
2021/12/01 06:39:30;;;;;;;1.15;0.70;;;8.50;99.90;;;;;;5051154;28;20204;-58
2021/12/01 06:41:58;;;;;;;1.55;0.80;;;8.60;99.90;;;;;;5050475;28;20188;-59
2021/12/01 06:44:30;;;;;;;1.13;0.75;;;8.50;99.90;;;;;;5050861;28;20198;-60
2021/12/01 06:46:59;;;;;;;0.90;0.80;;;8.60;99.90;;;;;;5050866;28;20262;-59
2021/12/01 06:49:28;;;;;;;1.13;0.70;;;8.70;99.90;;;;;;5052293;28;20205;-57
2021/12/01 06:51:56;;;;;;;2.30;0.85;;;8.60;99.90;;;;;;5065590;28;20192;-58
2021/12/01 06:54:24;;;;;;;1.77;0.60;;;8.70;99.90;;;;;;5054558;28;20196;-59
2021/12/01 06:56:52;;;;;;;1.92;0.50;;;8.60;99.90;;;;;;5054700;28;20188;-59
2021/12/01 06:59:20;;;;;;;0.80;0.40;;;8.60;99.90;;;;;;5070930;28;20309;-57
2021/12/01 07:01:48;;;;;;;0.60;0.60;;;8.70;99.90;;;;;;5074591;28;20899;-57
2021/12/01 07:04:18;;;;;;;1.25;0.50;;;8.60;99.90;;;;;;5073416;28;20242;-59
2021/12/01 07:06:47;;;;;;;0.63;0.60;;;8.60;99.90;;;;;;5062868;28;20266;-59
2021/12/01 07:09:21;;;;;;;0.50;0.40;;;8.60;99.90;;;;;;5057330;28;20258;-59
2021/12/01 07:11:49;;;;;;;0.80;0.50;;;8.60;99.90;;;;;;5074250;28;20244;-57
2021/12/01 07:14:17;;;;;;;0.85;0.50;;;8.60;99.90;;;;;;5071998;28;20222;-57
2021/12/01 07:16:47;;;;;;;0.80;0.38;;;8.70;99.90;;;;;;5074405;28;20203;-58
2021/12/01 07:19:15;;;;;;;0.80;0.50;;;8.70;99.90;;;;;;5071579;28;20312;-58
2021/12/01 07:21:44;;;;;;;1.10;0.70;;;8.70;99.90;;;;;;5067561;28;20185;-57
2021/12/01 07:24:13;;;;;;;1.23;0.40;;;8.60;99.90;;;;;;5053594;28;20311;-58
2021/12/01 07:26:41;;;;;;;0.70;0.50;;;8.60;99.90;;;;;;5073139;28;20299;-60
2021/12/01 07:29:10;;;;;;;0.68;0.50;;;8.60;99.90;;;;;;5055986;28;20232;-57
2021/12/01 07:31:38;;;;;;;0.83;0.40;;;8.60;99.90;;;;;;5054241;28;20196;-57
2021/12/01 07:34:06;;;;;;;16.73;1.75;;;8.60;99.90;;;;;;5053484;28;20526;-58
2021/12/01 07:36:35;;;;;;;0.50;0.30;;;8.60;99.90;;;;;;5054057;28;20198;-59
2021/12/01 07:39:04;;;;;;;1.00;0.60;;;8.60;99.90;;;;;;5053636;28;20606;-59
2021/12/01 07:41:33;;;;;;;0.95;0.40;;;8.60;99.90;;;;;;5054077;28;20207;-58
2021/12/01 07:44:01;;;;;;;0.50;0.30;;;8.60;99.90;;;;;;5067741;28;20218;-57
2021/12/01 07:46:29;;;;;;;1.13;0.40;;;8.70;99.90;;;;;;5072855;28;20204;-58
2021/12/01 07:48:57;;;;;;;0.70;0.35;;;8.70;99.90;;;;;;5073053;28;20230;-58
2021/12/01 07:51:25;;;;;;;0.82;0.43;;;8.70;99.90;;;;;;5071135;28;20192;-58
2021/12/01 07:53:55;;;;;;;1.10;0.50;;;8.70;99.90;;;;;;5052922;28;20630;-58
2021/12/01 07:56:24;;;;;;;0.60;0.30;;;8.70;99.90;;;;;;5053772;28;20188;-59
2021/12/01 07:58:52;;;;;;;0.40;0.30;;;8.70;99.90;;;;;;5053188;28;20602;-59
2021/12/01 08:01:20;;;;;;;0.73;0.50;;;8.80;99.90;;;;;;5053537;28;20188;-58
2021/12/01 08:03:49;;;;;;;0.52;0.30;;;8.90;99.90;;;;;;5051638;28;20223;-58
2021/12/01 08:06:17;;;;;;;0.88;0.50;;;8.90;99.90;;;;;;5052123;28;20204;-58
2021/12/01 08:08:45;;;;;;;1.15;0.93;;;9.00;99.90;;;;;;5053061;28;20231;-58
2021/12/01 08:11:13;;;;;;;1.08;0.40;;;9.00;99.90;;;;;;5052242;28;20187;-58
2021/12/01 08:13:43;;;;;;;0.52;0.32;;;9.00;99.90;;;;;;5057757;28;20282;-57
2021/12/01 08:16:16;;;;;;;0.70;0.50;;;9.00;99.90;;;;;;5072726;28;20194;-60
2021/12/01 08:18:44;;;;;;;1.85;0.68;;;9.00;99.90;;;;;;5072875;28;20325;-59
2021/12/01 08:21:17;;;;;;;0.63;0.50;;;9.10;99.90;;;;;;5071620;28;20195;-58
2021/12/01 08:23:57;;;;;;;0.98;0.50;;;9.10;99.90;;;;;;5072431;28;20220;-59
2021/12/01 08:26:27;;;;;;;1.20;0.40;;;9.10;99.90;;;;;;5072141;28;20213;-59
2021/12/01 08:28:56;;;;;;;0.60;0.40;;;9.20;99.90;;;;;;5058393;28;20898;-58
2021/12/01 08:31:24;;;;;;;1.77;0.40;;;9.20;99.90;;;;;;5053055;28;20200;-57
2021/12/01 08:33:53;;;;;;;0.50;0.40;;;9.20;99.90;;;;;;5051351;28;20895;-57
2021/12/01 08:36:21;;;;;;;0.50;0.30;;;9.20;99.90;;;;;;5051147;28;20535;-58
2021/12/01 08:38:49;;;;;;;0.55;0.30;;;9.10;99.90;;;;;;5052168;28;20500;-60
2021/12/01 08:41:17;;;;;;;2.85;1.88;;;9.10;99.90;;;;;;5067163;28;20196;-58
2021/12/01 08:43:46;;;;;;;2.33;0.50;;;9.10;99.90;;;;;;5058979;28;20219;-57
2021/12/01 08:46:16;;;;;;;0.60;0.40;;;9.10;99.90;;;;;;5059136;28;20208;-58
2021/12/01 08:48:44;;;;;;;0.60;0.30;;;9.10;99.90;;;;;;5071928;28;20472;-58
2021/12/01 08:51:12;;;;;;;0.40;0.25;;;9.20;99.90;;;;;;5072732;28;20257;-57
2021/12/01 08:53:43;;;;;;;0.70;0.30;;;9.20;99.90;;;;;;5052077;28;20586;-58
2021/12/01 08:56:12;;;;;;;0.63;0.40;;;9.20;99.90;;;;;;5052671;28;20789;-59
2021/12/01 08:58:41;;;;;;;0.60;0.50;;;9.20;99.90;;;;;;5051683;28;20536;-57
2021/12/01 09:01:09;;;;;;;0.57;0.30;;;9.20;99.90;;;;;;5052645;28;20430;-58
2021/12/01 09:03:39;;;;;;;0.45;0.30;;;9.20;99.90;;;;;;5070275;28;21061;-57
2021/12/01 09:06:07;;;;;;;0.80;0.52;;;9.20;99.90;;;;;;5068059;28;20211;-58
2021/12/01 09:08:36;;;;;;;0.50;0.50;;;9.20;99.90;;;;;;5050507;28;20232;-59
2021/12/01 09:11:05;;;;;;;0.60;0.30;;;9.30;99.90;;;;;;5052407;28;20803;-58
2021/12/01 09:13:35;;;;;;;0.50;0.30;;;9.30;99.90;;;;;;5054473;28;20226;-58
2021/12/01 09:16:04;;;;;;;0.80;0.60;;;9.40;99.90;;;;;;5071938;28;20521;-58
2021/12/01 09:18:33;;;;;;;0.70;0.50;;;9.30;99.90;;;;;;5071807;28;20825;-59
2021/12/01 09:21:05;;;;;;;0.50;0.37;;;9.30;99.90;;;;;;5072167;28;20267;-58
2021/12/01 09:23:33;;;;;;;0.50;0.30;;;9.30;99.90;;;;;;5054813;28;20471;-58
2021/12/01 09:26:01;;;;;;;0.60;0.30;;;9.30;99.90;;;;;;5051581;28;20204;-59
2021/12/01 09:28:29;;;;;;;0.50;0.30;;;9.30;99.90;;;;;;5061831;28;20310;-59
2021/12/01 09:30:58;;;;;;;0.80;0.30;;;9.40;99.90;;;;;;5072267;28;20195;-58
2021/12/01 09:33:28;;;;;;;0.73;0.30;;;9.50;99.90;;;;;;5071465;28;21086;-58
2021/12/01 09:35:57;;;;;;;0.60;0.30;;;9.50;99.90;;;;;;5061055;28;20199;-59
2021/12/01 09:38:27;;;;;;;1.23;0.52;;;9.50;99.90;;;;;;5051311;28;20236;-59
2021/12/01 09:40:57;;;;;;;0.60;0.30;;;9.50;99.90;;;;;;5050714;28;20664;-58
2021/12/01 09:43:44;;;;;;;0.40;0.30;;;9.50;99.90;;;;;;5050399;28;20478;-57
2021/12/01 09:46:30;;;;;;;0.77;0.40;;;9.50;99.90;;;;;;5052036;28;20465;-59
2021/12/01 09:48:59;;;;;;;0.50;0.40;;;9.50;99.90;;;;;;5051043;28;20234;-60
2021/12/01 09:51:28;;;;;;;0.80;0.43;;;9.60;99.90;;;;;;5051951;28;20489;-58
2021/12/01 09:54:00;;;;;;;0.60;0.40;;;9.60;99.90;;;;;;5051297;28;20470;-58
2021/12/01 09:56:29;;;;;;;0.70;0.40;;;9.60;99.90;;;;;;5052013;28;20777;-58
2021/12/01 09:58:58;;;;;;;0.60;0.50;;;9.60;99.90;;;;;;5051019;28;20512;-58
2021/12/01 10:01:28;;;;;;;0.90;0.30;;;9.60;99.90;;;;;;5051712;28;20462;-58
2021/12/01 10:03:58;;;;;;;1.35;0.30;;;9.70;99.90;;;;;;5049811;28;20462;-59
2021/12/01 10:06:28;;;;;;;0.67;0.40;;;9.70;99.90;;;;;;5051850;28;20253;-58
2021/12/01 10:09:00;;;;;;;0.50;0.30;;;9.80;99.90;;;;;;5049893;28;21015;-58
2021/12/01 10:11:30;;;;;;;0.63;0.33;;;9.80;99.90;;;;;;5051683;28;20443;-59
2021/12/01 10:14:01;;;;;;;0.60;0.40;;;9.80;99.90;;;;;;5058303;28;21006;-58
2021/12/01 10:16:32;;;;;;;0.70;0.40;;;9.80;99.90;;;;;;5071242;28;20435;-58
2021/12/01 10:19:04;;;;;;;0.70;0.40;;;9.80;99.90;;;;;;5070906;28;20485;-59
2021/12/01 10:21:34;;;;;;;0.50;0.47;;;9.80;99.90;;;;;;5058274;28;20505;-57
2021/12/01 10:24:08;;;;;;;0.60;0.50;;;9.80;99.90;;;;;;5051293;28;21125;-57
2021/12/01 10:26:40;;;;;;;0.50;0.40;;;9.80;99.90;;;;;;5055609;28;20431;-58
2021/12/01 10:29:10;;;;;;;0.67;0.37;;;9.80;99.90;;;;;;5069219;28;20482;-59
2021/12/01 10:31:42;;;;;;;0.60;0.30;;;9.70;99.90;;;;;;5075638;28;20426;-57
2021/12/01 10:34:19;;;;;;;0.70;0.40;;;9.90;99.90;;;;;;5073401;28;20462;-57
2021/12/01 10:36:49;;;;;;;3.20;0.43;;;10.00;99.90;;;;;;5061111;28;20438;-58
2021/12/01 10:39:19;;;;;;;0.53;0.40;;;10.00;99.90;;;;;;5054874;28;20447;-60
2021/12/01 10:41:47;;;;;;;1.30;1.10;;;10.00;99.90;;;;;;5055297;28;20437;-58
2021/12/01 10:44:17;;;;;;;0.50;0.40;;;10.00;99.90;;;;;;5053465;28;20468;-58
2021/12/01 10:47:09;;;;;;;0.73;0.43;;;9.90;99.90;;;;;;5054822;28;20473;-59
2021/12/01 10:49:58;;;;;;;0.50;0.30;;;9.80;99.90;;;;;;5073342;28;20426;-59
2021/12/01 10:52:49;;;;;;;0.50;0.30;;;9.80;99.90;;;;;;5059170;28;20546;-58
2021/12/01 10:55:43;;;;;;;0.50;0.40;;;9.80;99.90;;;;;;5054118;28;21032;-58
2021/12/01 10:58:15;;;;;;;0.50;0.30;;;9.90;99.90;;;;;;5057269;28;20556;-59
2021/12/01 11:00:46;;;;;;;0.60;0.33;;;10.00;99.90;;;;;;5073662;28;20521;-58
2021/12/01 11:03:16;;;;;;;0.40;0.30;;;10.00;99.90;;;;;;5072639;28;20955;-58
2021/12/01 11:05:47;;;;;;;0.80;0.53;;;10.00;99.90;;;;;;5065832;28;20449;-58
2021/12/01 11:08:19;;;;;;;3.03;0.40;;;9.90;99.90;;;;;;5056572;28;20473;-59
2021/12/01 11:10:51;;;;;;;0.40;0.30;;;9.90;99.90;;;;;;5074687;28;20765;-59
2021/12/01 11:13:20;;;;;;;0.63;0.50;;;9.70;99.90;;;;;;5072471;28;20473;-58
2021/12/01 11:15:53;;;;;;;0.50;0.40;;;9.60;99.90;;;;;;5074626;28;20426;-58
2021/12/01 11:18:43;;;;;;;0.83;0.33;;;9.70;99.90;;;;;;5074021;28;20840;-59
2021/12/01 11:21:14;;;;;;;1.00;0.50;;;9.70;99.90;;;;;;5072533;28;20418;-57
2021/12/01 11:23:45;;;;;;;0.60;0.50;;;9.60;99.90;;;;;;5053824;28;21028;-59
2021/12/01 11:26:17;;;;;;;0.70;0.50;;;9.60;99.90;;;;;;5053274;28;20521;-58
2021/12/01 11:28:48;;;;;;;1.30;0.50;;;9.60;99.90;;;;;;5053502;28;20482;-59
2021/12/01 11:31:19;;;;;;;0.50;0.30;;;9.50;99.90;;;;;;5071275;28;20415;-58
2021/12/01 11:33:48;;;;;;;0.47;0.33;;;9.40;99.90;;;;;;5072860;28;20552;-58
2021/12/01 11:36:19;;;;;;;1.67;0.40;;;9.40;99.90;;;;;;5061405;28;20430;-57
2021/12/01 11:38:50;;;;;;;0.52;0.47;;;9.40;99.90;;;;;;5052023;28;21106;-59
2021/12/01 11:41:19;;;;;;;0.80;0.50;;;9.30;99.90;;;;;;5071109;28;20253;-59
2021/12/01 11:43:49;;;;;;;0.70;0.40;;;9.30;99.90;;;;;;5060038;28;20551;-60
2021/12/01 11:46:20;;;;;;;0.50;0.40;;;9.30;99.90;;;;;;5058739;28;20437;-62
2021/12/01 11:48:50;;;;;;;0.50;0.43;;;9.20;99.90;;;;;;5072869;28;20481;-61
2021/12/01 11:51:22;;;;;;;0.77;0.43;;;9.20;99.90;;;;;;5071991;28;21185;-61
2021/12/01 11:53:54;;;;;;;0.60;0.40;;;9.20;99.90;;;;;;5053396;28;21206;-61
2021/12/01 11:56:28;;;;;;;0.80;0.50;;;9.10;99.90;;;;;;5053628;28;20426;-61
2021/12/01 11:59:00;;;;;;;0.90;0.45;;;9.10;99.90;;;;;;5063105;28;20874;-62
2021/12/01 12:01:46;;;;;;;0.57;0.40;;;9.10;99.90;;;;;;5072466;28;20268;-60
2021/12/01 12:04:26;;;;;;;1.15;0.80;;;9.00;99.90;;;;;;5072727;28;20226;-61
2021/12/01 12:07:04;;;;;;;1.48;0.90;;;9.00;99.90;;;;;;5065155;28;20185;-61
2021/12/01 12:10:14;;;;;;;1.98;1.50;;;8.90;99.90;;;;;;5054002;28;20204;-61
2021/12/01 12:13:04;;;;;;;1.85;1.20;;;8.80;99.90;;;;;;5053246;28;20598;-61
2021/12/01 12:15:53;;;;;;;2.63;1.30;;;8.80;99.90;;;;;;5053469;28;20246;-60
2021/12/01 12:18:52;;;;;;;2.95;2.47;;;8.80;99.90;;;;;;5052774;28;20246;-62
2021/12/01 12:21:27;;;;;;;5.85;3.25;;;8.70;99.90;;;;;;5053997;28;20207;-61
2021/12/01 12:24:04;;;;;;;7.90;3.50;;;8.70;99.90;;;;;;5069018;28;20687;-61
2021/12/01 12:26:40;;;;;;;7.05;3.55;;;8.80;99.90;;;;;;5073182;28;20176;-62
2021/12/01 12:29:13;;;;;;;6.30;3.35;;;8.80;99.90;;;;;;5057208;28;20582;-62
2021/12/01 12:31:42;;;;;;;7.80;4.13;;;8.80;99.90;;;;;;5073040;28;20194;-60
2021/12/01 12:34:15;;;;;;;10.38;4.03;;;8.80;99.90;;;;;;5071828;28;20704;-61
2021/12/01 12:36:46;;;;;;;4.93;3.63;;;8.80;99.90;;;;;;5071233;28;20602;-61
2021/12/01 12:39:17;;;;;;;6.83;4.00;;;8.80;99.90;;;;;;5070365;28;20307;-60
2021/12/01 12:42:06;;;;;;;7.03;4.28;;;8.80;99.90;;;;;;5072904;28;20443;-58
2021/12/01 12:44:38;;;;;;;8.95;4.25;;;8.90;99.90;;;;;;5052445;28;20697;-58
2021/12/01 12:47:30;;;;;;;7.35;3.40;;;8.80;99.90;;;;;;5049860;28;20222;-59
2021/12/01 12:50:10;;;;;;;5.82;3.33;;;8.80;99.90;;;;;;5054789;28;20234;-59
2021/12/01 12:52:40;;;;;;;4.82;3.22;;;8.90;99.90;;;;;;5064872;28;20367;-58
2021/12/01 12:55:12;;;;;;;3.42;3.13;;;8.80;99.90;;;;;;5052147;28;20226;-58
2021/12/01 12:57:56;;;;;;;6.25;3.65;;;8.80;99.90;;;;;;5052302;28;20212;-60
2021/12/01 13:00:28;;;;;;;5.40;3.72;;;8.70;99.90;;;;;;5052454;28;20196;-59
2021/12/01 13:02:59;;;;;;;10.15;4.35;;;8.70;99.90;;;;;;5050734;28;20226;-58
2021/12/01 13:05:33;;;;;;;4.95;3.10;;;8.70;99.90;;;;;;5052084;28;20196;-58
2021/12/01 13:08:02;;;;;;;3.10;2.78;;;8.60;99.90;;;;;;5051186;28;20218;-59
2021/12/01 13:10:36;;;;;;;7.07;3.25;;;8.70;99.90;;;;;;5051086;28;20187;-59
2021/12/01 13:13:07;;;;;;;1.88;1.75;;;8.60;99.90;;;;;;5051713;28;20208;-58
2021/12/01 13:15:40;;;;;;;3.00;1.77;;;8.60;99.90;;;;;;5051860;28;20193;-58
2021/12/01 13:18:11;;;;;;;2.67;1.52;;;8.60;99.90;;;;;;5051802;28;20315;-60
2021/12/01 13:20:41;;;;;;;2.33;1.55;;;8.60;99.90;;;;;;5052173;28;20559;-59